Terminal Aerodrome Forecast
Issued by NWS Charleston, WV

Current Version | Previous Version | Graphics & Text | Print | Product List | Glossary On
Versions: 1 2 3 4 5 6 7 8 9 10 11 12 13 14 15 16 17 18 19 20 21 22
202
FTUS41 KRLX 212334
TAFPKB
TAF
KPKB 212334Z 2200/2224 29005KT P6SM BKN080
     FM220400 32009G15KT P6SM BKN200
     FM221100 36009KT P6SM SCT250=

USA.gov is the U.S. government's official web portal to all federal, state and local government web resources and services.